sensor_id;sensor_type;location;lat;lon;timestamp;P1;P2;P0
67714;PMS7003;54505;44.022;20.458;2023-01-08T00:00:44;262.25;210.75;118.00
67714;PMS7003;54505;44.022;20.458;2023-01-08T00:03:30;286.00;237.50;137.00
67714;PMS7003;54505;44.022;20.458;2023-01-08T00:05:58;301.50;243.75;138.25
67714;PMS7003;54505;44.022;20.458;2023-01-08T00:08:24;272.00;239.50;133.25
67714;PMS7003;54505;44.022;20.458;2023-01-08T00:10:52;257.25;218.75;128.50
67714;PMS7003;54505;44.022;20.458;2023-01-08T00:13:18;259.75;211.25;124.00
67714;PMS7003;54505;44.022;20.458;2023-01-08T00:15:45;247.00;216.50;122.00
67714;PMS7003;54505;44.022;20.458;2023-01-08T00:18:10;260.50;216.75;126.25
67714;PMS7003;54505;44.022;20.458;2023-01-08T00:20:37;250.75;214.75;126.00
67714;PMS7003;54505;44.022;20.458;2023-01-08T00:23:05;206.00;167.75;95.50
67714;PMS7003;54505;44.022;20.458;2023-01-08T00:25:31;173.00;153.50;94.25
67714;PMS7003;54505;44.022;20.458;2023-01-08T00:27:56;178.75;152.75;91.50
67714;PMS7003;54505;44.022;20.458;2023-01-08T00:30:22;184.00;148.00;91.75
67714;PMS7003;54505;44.022;20.458;2023-01-08T00:32:48;184.00;151.00;85.00
67714;PMS7003;54505;44.022;20.458;2023-01-08T00:35:13;177.25;147.75;93.25
67714;PMS7003;54505;44.022;20.458;2023-01-08T00:37:39;181.25;155.75;91.25
67714;PMS7003;54505;44.022;20.458;2023-01-08T00:40:05;203.00;166.25;93.00
67714;PMS7003;54505;44.022;20.458;2023-01-08T00:42:31;201.00;178.25;100.75
67714;PMS7003;54505;44.022;20.458;2023-01-08T00:44:57;171.75;143.75;87.00
67714;PMS7003;54505;44.022;20.458;2023-01-08T00:47:22;182.25;152.25;92.75
67714;PMS7003;54505;44.022;20.458;2023-01-08T00:49:48;192.00;167.25;97.00
67714;PMS7003;54505;44.022;20.458;2023-01-08T00:52:13;179.00;151.50;87.00
67714;PMS7003;54505;44.022;20.458;2023-01-08T00:54:39;200.00;167.75;96.25
67714;PMS7003;54505;44.022;20.458;2023-01-08T00:57:05;208.25;169.50;100.75
67714;PMS7003;54505;44.022;20.458;2023-01-08T00:59:31;195.00;159.50;99.00
67714;PMS7003;54505;44.022;20.458;2023-01-08T01:01:56;211.50;178.00;103.75
67714;PMS7003;54505;44.022;20.458;2023-01-08T01:04:23;209.75;177.00;106.50
67714;PMS7003;54505;44.022;20.458;2023-01-08T01:06:49;190.50;159.75;93.25
67714;PMS7003;54505;44.022;20.458;2023-01-08T01:09:15;201.50;163.25;100.25
67714;PMS7003;54505;44.022;20.458;2023-01-08T01:11:40;216.00;173.00;100.00
67714;PMS7003;54505;44.022;20.458;2023-01-08T01:14:06;204.75;162.00;89.00
67714;PMS7003;54505;44.022;20.458;2023-01-08T01:16:32;187.00;146.75;93.50
67714;PMS7003;54505;44.022;20.458;2023-01-08T01:18:58;199.25;155.75;85.00
67714;PMS7003;54505;44.022;20.458;2023-01-08T01:21:25;204.25;162.50;93.25
67714;PMS7003;54505;44.022;20.458;2023-01-08T01:23:55;195.50;162.00;98.25
67714;PMS7003;54505;44.022;20.458;2023-01-08T01:26:21;198.75;161.25;96.00
67714;PMS7003;54505;44.022;20.458;2023-01-08T01:28:48;219.25;196.50;104.75
67714;PMS7003;54505;44.022;20.458;2023-01-08T01:31:14;243.25;208.50;114.00
67714;PMS7003;54505;44.022;20.458;2023-01-08T01:33:40;232.25;186.75;101.00
67714;PMS7003;54505;44.022;20.458;2023-01-08T01:36:06;268.75;218.25;127.00
67714;PMS7003;54505;44.022;20.458;2023-01-08T01:38:32;270.25;220.25;122.50
67714;PMS7003;54505;44.022;20.458;2023-01-08T01:40:58;273.50;214.75;124.00
67714;PMS7003;54505;44.022;20.458;2023-01-08T01:48:57;253.25;212.50;123.00
67714;PMS7003;54505;44.022;20.458;2023-01-08T01:51:24;275.25;226.75;127.25
67714;PMS7003;54505;44.022;20.458;2023-01-08T01:53:53;309.25;248.00;132.25
67714;PMS7003;54505;44.022;20.458;2023-01-08T01:56:19;278.25;227.75;126.00
67714;PMS7003;54505;44.022;20.458;2023-01-08T01:58:45;257.25;214.50;118.50
67714;PMS7003;54505;44.022;20.458;2023-01-08T02:01:10;268.50;214.00;122.75
67714;PMS7003;54505;44.022;20.458;2023-01-08T02:03:37;262.25;226.00;124.25
67714;PMS7003;54505;44.022;20.458;2023-01-08T02:13:33;292.00;235.50;133.00
67714;PMS7003;54505;44.022;20.458;2023-01-08T02:18:56;249.25;194.75;112.50
67714;PMS7003;54505;44.022;20.458;2023-01-08T02:24:10;214.75;182.00;102.75
67714;PMS7003;54505;44.022;20.458;2023-01-08T02:26:37;214.25;175.75;102.00
67714;PMS7003;54505;44.022;20.458;2023-01-08T02:29:07;218.25;185.00;103.25
67714;PMS7003;54505;44.022;20.458;2023-01-08T02:31:34;205.50;167.50;100.50
67714;PMS7003;54505;44.022;20.458;2023-01-08T02:34:01;212.50;170.25;102.75
67714;PMS7003;54505;44.022;20.458;2023-01-08T02:36:42;216.00;175.25;99.25
67714;PMS7003;54505;44.022;20.458;2023-01-08T02:39:12;187.25;151.50;91.75
67714;PMS7003;54505;44.022;20.458;2023-01-08T02:45:09;195.25;164.75;92.00
67714;PMS7003;54505;44.022;20.458;2023-01-08T02:47:16;182.25;153.00;89.75
67714;PMS7003;54505;44.022;20.458;2023-01-08T02:49:44;176.00;151.25;88.00
67714;PMS7003;54505;44.022;20.458;2023-01-08T02:52:11;149.00;124.25;73.75
67714;PMS7003;54505;44.022;20.458;2023-01-08T02:54:38;141.75;120.75;62.75
67714;PMS7003;54505;44.022;20.458;2023-01-08T02:57:08;130.25;109.25;60.75
67714;PMS7003;54505;44.022;20.458;2023-01-08T02:59:36;131.50;110.00;64.50
67714;PMS7003;54505;44.022;20.458;2023-01-08T03:02:02;129.75;110.50;66.75
67714;PMS7003;54505;44.022;20.458;2023-01-08T03:04:29;143.25;117.00;69.00
67714;PMS7003;54505;44.022;20.458;2023-01-08T03:06:57;138.75;115.00;68.00
67714;PMS7003;54505;44.022;20.458;2023-01-08T03:09:22;141.75;120.25;69.75
67714;PMS7003;54505;44.022;20.458;2023-01-08T03:12:32;159.25;130.50;75.50
67714;PMS7003;54505;44.022;20.458;2023-01-08T03:17:07;151.50;126.75;70.00
67714;PMS7003;54505;44.022;20.458;2023-01-08T03:19:45;159.25;125.25;75.25
67714;PMS7003;54505;44.022;20.458;2023-01-08T03:22:12;155.75;131.75;78.00
67714;PMS7003;54505;44.022;20.458;2023-01-08T03:24:40;177.00;148.25;84.50
67714;PMS7003;54505;44.022;20.458;2023-01-08T03:27:07;235.00;189.50;109.75
67714;PMS7003;54505;44.022;20.458;2023-01-08T03:29:34;251.25;202.75;111.25
67714;PMS7003;54505;44.022;20.458;2023-01-08T03:32:02;234.50;186.50;107.25
67714;PMS7003;54505;44.022;20.458;2023-01-08T03:34:29;238.00;205.25;117.75
67714;PMS7003;54505;44.022;20.458;2023-01-08T03:36:56;170.25;131.75;80.75
67714;PMS7003;54505;44.022;20.458;2023-01-08T03:39:30;144.75;122.00;72.75
67714;PMS7003;54505;44.022;20.458;2023-01-08T03:41:59;117.50;95.25;63.00
67714;PMS7003;54505;44.022;20.458;2023-01-08T03:44:26;140.50;112.25;71.00
67714;PMS7003;54505;44.022;20.458;2023-01-08T03:46:53;134.00;106.50;67.00
67714;PMS7003;54505;44.022;20.458;2023-01-08T03:49:19;131.00;101.25;61.75
67714;PMS7003;54505;44.022;20.458;2023-01-08T03:51:46;141.00;116.75;65.50
67714;PMS7003;54505;44.022;20.458;2023-01-08T03:54:19;153.50;119.50;67.50
67714;PMS7003;54505;44.022;20.458;2023-01-08T03:56:45;196.75;161.00;87.50
67714;PMS7003;54505;44.022;20.458;2023-01-08T03:59:11;170.50;148.25;84.75
67714;PMS7003;54505;44.022;20.458;2023-01-08T04:01:37;153.75;138.00;85.75
67714;PMS7003;54505;44.022;20.458;2023-01-08T04:04:03;161.75;129.50;76.50
67714;PMS7003;54505;44.022;20.458;2023-01-08T04:06:28;188.75;147.00;86.50
67714;PMS7003;54505;44.022;20.458;2023-01-08T04:08:54;156.00;130.25;75.75
67714;PMS7003;54505;44.022;20.458;2023-01-08T04:11:20;170.00;139.75;80.75
67714;PMS7003;54505;44.022;20.458;2023-01-08T04:13:46;141.50;117.75;70.00
67714;PMS7003;54505;44.022;20.458;2023-01-08T04:16:11;130.25;102.50;61.00
67714;PMS7003;54505;44.022;20.458;2023-01-08T04:18:37;130.00;97.00;61.00
67714;PMS7003;54505;44.022;20.458;2023-01-08T04:21:03;163.75;144.25;86.50
67714;PMS7003;54505;44.022;20.458;2023-01-08T04:23:29;204.25;171.25;93.25
67714;PMS7003;54505;44.022;20.458;2023-01-08T04:25:54;230.00;189.25;104.25
67714;PMS7003;54505;44.022;20.458;2023-01-08T04:28:20;232.75;190.50;105.00
67714;PMS7003;54505;44.022;20.458;2023-01-08T04:30:46;236.25;203.00;110.25
67714;PMS7003;54505;44.022;20.458;2023-01-08T04:33:12;226.00;182.50;98.00
67714;PMS7003;54505;44.022;20.458;2023-01-08T04:35:37;209.25;171.75;101.25
67714;PMS7003;54505;44.022;20.458;2023-01-08T04:38:04;154.00;124.50;73.25
67714;PMS7003;54505;44.022;20.458;2023-01-08T04:40:30;149.00;121.50;71.50
67714;PMS7003;54505;44.022;20.458;2023-01-08T04:42:56;117.75;88.50;52.00
67714;PMS7003;54505;44.022;20.458;2023-01-08T04:45:22;119.25;97.75;60.75
67714;PMS7003;54505;44.022;20.458;2023-01-08T04:47:48;111.25;85.00;52.75
67714;PMS7003;54505;44.022;20.458;2023-01-08T04:50:19;125.25;102.00;58.25
67714;PMS7003;54505;44.022;20.458;2023-01-08T04:52:45;115.50;92.25;54.25
67714;PMS7003;54505;44.022;20.458;2023-01-08T04:55:10;118.75;98.00;57.50
67714;PMS7003;54505;44.022;20.458;2023-01-08T04:57:36;124.50;99.75;62.25
67714;PMS7003;54505;44.022;20.458;2023-01-08T05:00:02;115.00;95.75;63.00
67714;PMS7003;54505;44.022;20.458;2023-01-08T05:02:28;115.25;90.50;56.75
67714;PMS7003;54505;44.022;20.458;2023-01-08T05:04:54;117.00;93.50;57.75
67714;PMS7003;54505;44.022;20.458;2023-01-08T05:07:20;129.75;101.25;60.75
67714;PMS7003;54505;44.022;20.458;2023-01-08T05:09:45;129.50;108.00;64.75
67714;PMS7003;54505;44.022;20.458;2023-01-08T05:12:11;112.75;88.50;56.75
67714;PMS7003;54505;44.022;20.458;2023-01-08T05:14:36;114.00;88.25;53.25
67714;PMS7003;54505;44.022;20.458;2023-01-08T05:17:02;132.25;99.50;61.00
67714;PMS7003;54505;44.022;20.458;2023-01-08T05:19:28;113.50;90.75;59.00
67714;PMS7003;54505;44.022;20.458;2023-01-08T05:21:54;125.50;94.25;54.25
67714;PMS7003;54505;44.022;20.458;2023-01-08T05:24:19;114.00;88.00;55.25
67714;PMS7003;54505;44.022;20.458;2023-01-08T05:26:45;115.25;92.00;55.75
67714;PMS7003;54505;44.022;20.458;2023-01-08T05:29:10;111.00;82.50;51.25
67714;PMS7003;54505;44.022;20.458;2023-01-08T05:31:37;119.00;102.75;66.50
67714;PMS7003;54505;44.022;20.458;2023-01-08T05:34:02;147.25;122.75;75.25
67714;PMS7003;54505;44.022;20.458;2023-01-08T05:36:28;175.25;145.50;82.50
67714;PMS7003;54505;44.022;20.458;2023-01-08T05:38:55;181.00;156.25;89.25
67714;PMS7003;54505;44.022;20.458;2023-01-08T05:41:21;186.00;154.75;90.00
67714;PMS7003;54505;44.022;20.458;2023-01-08T05:43:46;117.50;97.00;57.00
67714;PMS7003;54505;44.022;20.458;2023-01-08T05:46:12;170.50;139.50;81.00
67714;PMS7003;54505;44.022;20.458;2023-01-08T05:48:37;143.50;119.50;68.25
67714;PMS7003;54505;44.022;20.458;2023-01-08T05:51:03;154.00;120.00;70.25
67714;PMS7003;54505;44.022;20.458;2023-01-08T05:53:29;145.50;123.75;70.75
67714;PMS7003;54505;44.022;20.458;2023-01-08T05:55:58;129.25;113.25;66.00
67714;PMS7003;54505;44.022;20.458;2023-01-08T05:58:24;138.00;114.00;67.50
67714;PMS7003;54505;44.022;20.458;2023-01-08T06:00:59;107.75;76.25;35.00
67714;PMS7003;54505;44.022;20.458;2023-01-08T06:03:24;135.25;111.00;68.25
67714;PMS7003;54505;44.022;20.458;2023-01-08T06:05:50;119.00;104.75;63.25
67714;PMS7003;54505;44.022;20.458;2023-01-08T06:08:16;125.25;96.25;59.50
67714;PMS7003;54505;44.022;20.458;2023-01-08T06:10:41;131.50;108.25;63.25
67714;PMS7003;54505;44.022;20.458;2023-01-08T06:13:08;117.25;94.00;59.75
67714;PMS7003;54505;44.022;20.458;2023-01-08T06:15:34;120.75;104.25;60.25
67714;PMS7003;54505;44.022;20.458;2023-01-08T06:18:02;110.00;90.50;56.00
67714;PMS7003;54505;44.022;20.458;2023-01-08T06:20:28;117.50;95.75;59.50
67714;PMS7003;54505;44.022;20.458;2023-01-08T06:22:54;120.75;98.50;58.75
67714;PMS7003;54505;44.022;20.458;2023-01-08T06:25:20;126.25;110.00;68.50
67714;PMS7003;54505;44.022;20.458;2023-01-08T06:27:51;135.50;106.25;62.00
67714;PMS7003;54505;44.022;20.458;2023-01-08T06:30:17;143.25;110.50;64.50
67714;PMS7003;54505;44.022;20.458;2023-01-08T06:32:43;115.00;96.75;55.50
67714;PMS7003;54505;44.022;20.458;2023-01-08T06:35:08;108.00;81.75;54.00
67714;PMS7003;54505;44.022;20.458;2023-01-08T06:37:34;121.50;94.50;56.25
67714;PMS7003;54505;44.022;20.458;2023-01-08T06:40:00;113.25;84.50;57.25
67714;PMS7003;54505;44.022;20.458;2023-01-08T06:42:25;131.25;112.25;68.25
67714;PMS7003;54505;44.022;20.458;2023-01-08T06:44:51;112.75;93.75;57.75
67714;PMS7003;54505;44.022;20.458;2023-01-08T06:47:17;125.25;104.75;64.25
67714;PMS7003;54505;44.022;20.458;2023-01-08T06:49:43;127.00;101.00;61.00
67714;PMS7003;54505;44.022;20.458;2023-01-08T06:52:09;137.25;110.25;66.25
67714;PMS7003;54505;44.022;20.458;2023-01-08T06:54:35;119.75;96.75;59.25
67714;PMS7003;54505;44.022;20.458;2023-01-08T06:57:00;125.75;104.00;67.00
67714;PMS7003;54505;44.022;20.458;2023-01-08T06:59:27;89.75;69.00;44.75
67714;PMS7003;54505;44.022;20.458;2023-01-08T07:01:53;139.75;120.75;68.50
67714;PMS7003;54505;44.022;20.458;2023-01-08T07:04:19;133.00;111.00;71.25
67714;PMS7003;54505;44.022;20.458;2023-01-08T07:06:45;141.50;118.25;72.75
67714;PMS7003;54505;44.022;20.458;2023-01-08T07:09:12;139.50;112.00;67.00
67714;PMS7003;54505;44.022;20.458;2023-01-08T07:11:38;127.75;103.75;59.75
67714;PMS7003;54505;44.022;20.458;2023-01-08T07:14:03;109.00;84.75;52.00
67714;PMS7003;54505;44.022;20.458;2023-01-08T07:16:29;117.00;92.25;57.25
67714;PMS7003;54505;44.022;20.458;2023-01-08T07:18:55;117.00;92.25;57.25
67714;PMS7003;54505;44.022;20.458;2023-01-08T07:21:20;117.25;92.00;57.25
67714;PMS7003;54505;44.022;20.458;2023-01-08T07:23:47;136.75;112.00;67.75
67714;PMS7003;54505;44.022;20.458;2023-01-08T07:26:13;138.00;108.25;66.50
67714;PMS7003;54505;44.022;20.458;2023-01-08T07:28:39;125.50;107.00;66.00
67714;PMS7003;54505;44.022;20.458;2023-01-08T07:31:06;117.50;96.75;61.00
67714;PMS7003;54505;44.022;20.458;2023-01-08T07:33:31;123.50;100.75;63.25
67714;PMS7003;54505;44.022;20.458;2023-01-08T07:35:57;128.00;103.00;62.50
67714;PMS7003;54505;44.022;20.458;2023-01-08T07:38:23;118.25;89.25;59.75
67714;PMS7003;54505;44.022;20.458;2023-01-08T07:40:49;141.50;115.25;72.25
67714;PMS7003;54505;44.022;20.458;2023-01-08T07:43:15;158.75;132.75;80.00
67714;PMS7003;54505;44.022;20.458;2023-01-08T07:45:40;141.75;125.75;77.25
67714;PMS7003;54505;44.022;20.458;2023-01-08T07:48:06;169.75;141.50;83.75
67714;PMS7003;54505;44.022;20.458;2023-01-08T07:50:35;183.00;157.50;91.00
67714;PMS7003;54505;44.022;20.458;2023-01-08T07:53:01;209.25;170.25;105.25
67714;PMS7003;54505;44.022;20.458;2023-01-08T07:55:28;216.50;178.25;103.25
67714;PMS7003;54505;44.022;20.458;2023-01-08T07:57:54;195.00;162.00;96.25
67714;PMS7003;54505;44.022;20.458;2023-01-08T08:00:20;220.25;184.50;108.50
67714;PMS7003;54505;44.022;20.458;2023-01-08T08:02:46;178.50;155.75;95.00
67714;PMS7003;54505;44.022;20.458;2023-01-08T08:05:12;183.50;156.75;92.00
67714;PMS7003;54505;44.022;20.458;2023-01-08T08:07:38;181.50;150.25;90.25
67714;PMS7003;54505;44.022;20.458;2023-01-08T08:10:04;185.50;157.50;96.25
67714;PMS7003;54505;44.022;20.458;2023-01-08T08:12:30;190.50;166.00;98.75
67714;PMS7003;54505;44.022;20.458;2023-01-08T08:14:55;175.75;142.50;87.50
67714;PMS7003;54505;44.022;20.458;2023-01-08T08:17:21;165.75;143.00;88.75
67714;PMS7003;54505;44.022;20.458;2023-01-08T08:19:47;205.25;164.50;104.00
67714;PMS7003;54505;44.022;20.458;2023-01-08T08:22:12;228.75;189.50;114.25
67714;PMS7003;54505;44.022;20.458;2023-01-08T08:24:38;170.25;149.25;90.25
67714;PMS7003;54505;44.022;20.458;2023-01-08T08:27:04;172.00;137.00;80.50
67714;PMS7003;54505;44.022;20.458;2023-01-08T08:29:30;182.50;158.75;94.25
67714;PMS7003;54505;44.022;20.458;2023-01-08T08:31:55;212.50;172.50;103.50
67714;PMS7003;54505;44.022;20.458;2023-01-08T08:34:21;193.75;158.75;94.25
67714;PMS7003;54505;44.022;20.458;2023-01-08T08:36:47;207.25;174.50;100.75
67714;PMS7003;54505;44.022;20.458;2023-01-08T08:39:13;181.50;153.25;86.00
67714;PMS7003;54505;44.022;20.458;2023-01-08T08:41:39;201.75;171.00;100.25
67714;PMS7003;54505;44.022;20.458;2023-01-08T08:44:08;200.00;161.50;92.25
67714;PMS7003;54505;44.022;20.458;2023-01-08T08:46:34;214.25;169.75;100.00
67714;PMS7003;54505;44.022;20.458;2023-01-08T08:49:00;194.50;159.50;95.25
67714;PMS7003;54505;44.022;20.458;2023-01-08T08:51:26;181.25;152.75;94.50
67714;PMS7003;54505;44.022;20.458;2023-01-08T08:53:52;184.00;151.00;91.50
67714;PMS7003;54505;44.022;20.458;2023-01-08T08:56:18;169.00;153.00;90.00
67714;PMS7003;54505;44.022;20.458;2023-01-08T08:58:44;159.00;138.00;81.25
67714;PMS7003;54505;44.022;20.458;2023-01-08T09:01:10;179.75;146.50;85.50
67714;PMS7003;54505;44.022;20.458;2023-01-08T09:03:36;142.50;129.75;79.25
67714;PMS7003;54505;44.022;20.458;2023-01-08T09:06:02;154.00;120.25;76.75
67714;PMS7003;54505;44.022;20.458;2023-01-08T09:08:27;152.50;122.00;71.25
67714;PMS7003;54505;44.022;20.458;2023-01-08T09:10:53;146.00;122.50;78.50
67714;PMS7003;54505;44.022;20.458;2023-01-08T09:13:19;158.50;132.00;81.25
67714;PMS7003;54505;44.022;20.458;2023-01-08T09:15:45;155.00;127.75;78.00
67714;PMS7003;54505;44.022;20.458;2023-01-08T09:18:10;155.75;133.25;80.00
67714;PMS7003;54505;44.022;20.458;2023-01-08T09:20:36;158.25;140.25;91.00
67714;PMS7003;54505;44.022;20.458;2023-01-08T09:23:02;141.50;128.25;84.25
67714;PMS7003;54505;44.022;20.458;2023-01-08T09:25:28;141.25;118.00;75.25
67714;PMS7003;54505;44.022;20.458;2023-01-08T09:28:00;130.75;123.25;70.25
67714;PMS7003;54505;44.022;20.458;2023-01-08T09:30:27;151.50;132.25;83.25
67714;PMS7003;54505;44.022;20.458;2023-01-08T09:32:56;148.00;126.25;80.75
67714;PMS7003;54505;44.022;20.458;2023-01-08T09:35:23;146.00;117.25;73.25
67714;PMS7003;54505;44.022;20.458;2023-01-08T09:37:49;136.75;119.50;70.50
67714;PMS7003;54505;44.022;20.458;2023-01-08T09:40:15;125.25;108.50;65.00
67714;PMS7003;54505;44.022;20.458;2023-01-08T09:42:41;132.25;120.25;70.00
67714;PMS7003;54505;44.022;20.458;2023-01-08T09:45:09;119.00;95.00;59.25
67714;PMS7003;54505;44.022;20.458;2023-01-08T09:47:38;122.00;104.25;65.00
67714;PMS7003;54505;44.022;20.458;2023-01-08T09:50:10;142.25;118.00;69.75
67714;PMS7003;54505;44.022;20.458;2023-01-08T09:52:37;136.00;116.00;72.25
67714;PMS7003;54505;44.022;20.458;2023-01-08T09:55:13;127.00;111.50;74.75
67714;PMS7003;54505;44.022;20.458;2023-01-08T09:57:39;129.50;108.50;68.25
67714;PMS7003;54505;44.022;20.458;2023-01-08T10:00:15;133.50;117.00;77.75
67714;PMS7003;54505;44.022;20.458;2023-01-08T10:02:41;118.50;99.75;67.50
67714;PMS7003;54505;44.022;20.458;2023-01-08T10:05:12;93.75;80.50;49.50
67714;PMS7003;54505;44.022;20.458;2023-01-08T10:07:38;101.75;86.25;56.00
67714;PMS7003;54505;44.022;20.458;2023-01-08T10:10:04;100.50;84.25;52.50
67714;PMS7003;54505;44.022;20.458;2023-01-08T10:12:30;87.75;70.00;42.25
67714;PMS7003;54505;44.022;20.458;2023-01-08T10:15:01;108.50;89.25;55.75
67714;PMS7003;54505;44.022;20.458;2023-01-08T10:17:35;100.75;87.25;55.25
67714;PMS7003;54505;44.022;20.458;2023-01-08T10:20:12;85.25;70.75;48.25
67714;PMS7003;54505;44.022;20.458;2023-01-08T10:22:38;88.75;67.50;44.75
67714;PMS7003;54505;44.022;20.458;2023-01-08T10:25:14;76.25;58.25;36.75
67714;PMS7003;54505;44.022;20.458;2023-01-08T10:27:44;77.25;59.75;38.75
67714;PMS7003;54505;44.022;20.458;2023-01-08T10:30:15;59.50;46.00;32.00
67714;PMS7003;54505;44.022;20.458;2023-01-08T10:32:45;57.50;46.75;31.25
67714;PMS7003;54505;44.022;20.458;2023-01-08T10:35:15;53.75;41.50;27.00
67714;PMS7003;54505;44.022;20.458;2023-01-08T10:37:41;54.75;43.25;29.00
67714;PMS7003;54505;44.022;20.458;2023-01-08T10:42:45;54.75;43.25;29.75
67714;PMS7003;54505;44.022;20.458;2023-01-08T10:45:15;52.00;39.25;25.75
67714;PMS7003;54505;44.022;20.458;2023-01-08T10:47:43;49.00;36.25;25.00
67714;PMS7003;54505;44.022;20.458;2023-01-08T10:50:14;43.25;37.75;25.50
67714;PMS7003;54505;44.022;20.458;2023-01-08T10:52:50;49.50;35.75;24.50
67714;PMS7003;54505;44.022;20.458;2023-01-08T10:55:21;41.00;36.75;24.50
67714;PMS7003;54505;44.022;20.458;2023-01-08T10:57:52;49.50;39.25;26.25
67714;PMS7003;54505;44.022;20.458;2023-01-08T11:00:32;48.50;40.00;27.00
67714;PMS7003;54505;44.022;20.458;2023-01-08T11:02:59;58.25;45.25;29.75
67714;PMS7003;54505;44.022;20.458;2023-01-08T11:05:33;55.25;41.75;28.25
67714;PMS7003;54505;44.022;20.458;2023-01-08T11:07:59;53.75;42.50;28.00
67714;PMS7003;54505;44.022;20.458;2023-01-08T11:10:26;51.50;42.25;28.25
67714;PMS7003;54505;44.022;20.458;2023-01-08T11:12:56;53.75;40.75;28.00
67714;PMS7003;54505;44.022;20.458;2023-01-08T11:15:44;50.75;42.25;29.00
67714;PMS7003;54505;44.022;20.458;2023-01-08T11:18:16;43.25;34.25;21.75
67714;PMS7003;54505;44.022;20.458;2023-01-08T11:20:44;34.25;32.25;21.25
67714;PMS7003;54505;44.022;20.458;2023-01-08T11:23:23;41.00;35.00;23.25
67714;PMS7003;54505;44.022;20.458;2023-01-08T11:28:15;36.00;30.75;19.25
67714;PMS7003;54505;44.022;20.458;2023-01-08T11:30:45;49.25;37.50;25.00
67714;PMS7003;54505;44.022;20.458;2023-01-08T11:33:12;45.00;36.00;24.50
67714;PMS7003;54505;44.022;20.458;2023-01-08T11:35:48;46.75;36.00;25.00
67714;PMS7003;54505;44.022;20.458;2023-01-08T11:38:15;50.50;39.25;25.25
67714;PMS7003;54505;44.022;20.458;2023-01-08T11:40:51;44.75;37.25;25.00
67714;PMS7003;54505;44.022;20.458;2023-01-08T11:48:18;58.25;45.00;30.50
67714;PMS7003;54505;44.022;20.458;2023-01-08T11:55:52;54.00;42.00;27.25
67714;PMS7003;54505;44.022;20.458;2023-01-08T12:03:46;42.75;36.50;24.25
67714;PMS7003;54505;44.022;20.458;2023-01-08T12:08:52;58.00;43.50;27.75
67714;PMS7003;54505;44.022;20.458;2023-01-08T12:11:26;50.50;38.50;24.25
67714;PMS7003;54505;44.022;20.458;2023-01-08T12:14:11;46.25;38.00;24.00
67714;PMS7003;54505;44.022;20.458;2023-01-08T12:19:22;66.25;49.25;32.50
67714;PMS7003;54505;44.022;20.458;2023-01-08T12:29:47;56.75;43.25;29.25
67714;PMS7003;54505;44.022;20.458;2023-01-08T12:37:13;56.00;43.00;28.00
67714;PMS7003;54505;44.022;20.458;2023-01-08T12:39:47;48.25;38.00;24.00
67714;PMS7003;54505;44.022;20.458;2023-01-08T12:42:16;48.50;37.75;24.25
67714;PMS7003;54505;44.022;20.458;2023-01-08T12:44:42;44.00;36.50;24.25
67714;PMS7003;54505;44.022;20.458;2023-01-08T12:47:12;53.75;41.50;28.25
67714;PMS7003;54505;44.022;20.458;2023-01-08T12:49:46;62.00;50.00;30.25
67714;PMS7003;54505;44.022;20.458;2023-01-08T12:52:34;61.00;49.25;32.25
67714;PMS7003;54505;44.022;20.458;2023-01-08T12:55:16;66.25;52.25;33.50
67714;PMS7003;54505;44.022;20.458;2023-01-08T12:57:50;72.75;55.25;36.75
67714;PMS7003;54505;44.022;20.458;2023-01-08T13:02:52;73.00;55.25;35.25
67714;PMS7003;54505;44.022;20.458;2023-01-08T13:07:53;65.00;49.00;32.00
67714;PMS7003;54505;44.022;20.458;2023-01-08T13:10:33;71.50;54.50;36.00
67714;PMS7003;54505;44.022;20.458;2023-01-08T13:13:00;70.75;53.75;35.25
67714;PMS7003;54505;44.022;20.458;2023-01-08T13:15:27;66.50;50.75;34.00
67714;PMS7003;54505;44.022;20.458;2023-01-08T13:17:54;73.50;54.75;36.25
67714;PMS7003;54505;44.022;20.458;2023-01-08T13:20:20;75.75;58.25;38.00
67714;PMS7003;54505;44.022;20.458;2023-01-08T13:22:51;69.25;54.75;34.75
67714;PMS7003;54505;44.022;20.458;2023-01-08T13:27:45;76.00;57.75;36.25
67714;PMS7003;54505;44.022;20.458;2023-01-08T13:32:55;69.50;50.25;36.25
67714;PMS7003;54505;44.022;20.458;2023-01-08T13:35:22;75.50;57.00;36.25
67714;PMS7003;54505;44.022;20.458;2023-01-08T13:37:49;78.75;59.25;38.25
67714;PMS7003;54505;44.022;20.458;2023-01-08T13:43:03;73.00;56.50;36.50
67714;PMS7003;54505;44.022;20.458;2023-01-08T13:45:30;78.25;58.00;35.75
67714;PMS7003;54505;44.022;20.458;2023-01-08T13:47:57;72.25;57.00;38.00
67714;PMS7003;54505;44.022;20.458;2023-01-08T13:50:23;74.25;56.00;37.00
67714;PMS7003;54505;44.022;20.458;2023-01-08T13:52:59;69.50;53.00;35.25
67714;PMS7003;54505;44.022;20.458;2023-01-08T13:57:53;64.25;51.25;35.75
67714;PMS7003;54505;44.022;20.458;2023-01-08T14:00:21;87.00;72.75;48.25
67714;PMS7003;54505;44.022;20.458;2023-01-08T14:02:48;68.75;53.75;35.25
67714;PMS7003;54505;44.022;20.458;2023-01-08T14:07:43;66.75;53.00;34.00
67714;PMS7003;54505;44.022;20.458;2023-01-08T14:10:10;71.50;56.50;36.50
67714;PMS7003;54505;44.022;20.458;2023-01-08T14:12:37;71.00;55.00;36.25
67714;PMS7003;54505;44.022;20.458;2023-01-08T14:15:03;72.00;53.75;35.00
67714;PMS7003;54505;44.022;20.458;2023-01-08T14:17:34;68.75;54.00;35.00
67714;PMS7003;54505;44.022;20.458;2023-01-08T14:20:00;62.75;47.75;32.50
67714;PMS7003;54505;44.022;20.458;2023-01-08T14:22:31;70.25;53.75;36.75
67714;PMS7003;54505;44.022;20.458;2023-01-08T14:24:57;80.25;58.00;38.25
67714;PMS7003;54505;44.022;20.458;2023-01-08T14:27:26;69.25;54.00;35.00
67714;PMS7003;54505;44.022;20.458;2023-01-08T14:29:52;70.25;55.75;35.75
67714;PMS7003;54505;44.022;20.458;2023-01-08T14:32:20;67.00;51.75;35.75
67714;PMS7003;54505;44.022;20.458;2023-01-08T14:34:47;80.50;65.75;39.50
67714;PMS7003;54505;44.022;20.458;2023-01-08T14:37:14;83.00;65.00;41.00
67714;PMS7003;54505;44.022;20.458;2023-01-08T14:39:40;96.25;82.75;46.75